Terminal Aerodrome Forecast
Issued by NWS Nashville, TN

Home | Current Version | Previous Version | Text Only | Print | Product List | Glossary On
Versions: 1 2 3 4 5 6 7 8 9 10 11 12 13 14 15
660
FTUS44 KOHX 282331
TAFCSV
TAF
KCSV 282331Z 2900/2924 18007KT P6SM BKN035 OVC050
      TEMPO 2908/2912 4SM BR OVC015
     FM291400 18012KT P6SM SCT025 BKN250=

USA.gov is the U.S. government's official web portal to all federal, state and local government web resources and services.